Time;durP1;ratioP1;P1;durP2;ratioP2;P2;SDS_P1;SDS_P2;PMS_P1;PMS_P2;Temp;Humidity;BMP_temperature;BMP_pressure;BME280_temperature;BME280_humidity;BME280_pressure;Samples;Min_cycle;Max_cycle;Signal;HPM_P1;HPM_P2
2023/02/08 00:01:12;;;;;;;;;33.00;33.00;;;;;;;;5002441;28;8881;-89
2023/02/08 00:03:40;;;;;;;;;41.00;41.00;;;;;;;;5017780;28;8888;-88
2023/02/08 00:06:09;;;;;;;;;34.67;34.67;;;;;;;;5015648;28;8890;-87
2023/02/08 00:08:38;;;;;;;;;34.67;32.67;;;;;;;;5009811;28;8847;-87
2023/02/08 00:11:06;;;;;;;;;32.33;29.33;;;;;;;;5020468;28;8840;-87
2023/02/08 00:13:35;;;;;;;;;38.00;38.00;;;;;;;;5013967;28;8993;-87
2023/02/08 00:16:04;;;;;;;;;48.67;44.67;;;;;;;;4991769;28;8867;-87
2023/02/08 00:18:34;;;;;;;;;32.00;32.00;;;;;;;;5009384;28;8879;-87
2023/02/08 00:21:02;;;;;;;;;43.67;41.00;;;;;;;;4991895;28;8850;-87
2023/02/08 00:23:31;;;;;;;;;45.00;41.00;;;;;;;;5006452;28;8886;-88
2023/02/08 00:25:58;;;;;;;;;38.67;38.67;;;;;;;;5009310;28;8856;-88
2023/02/08 00:28:27;;;;;;;;;38.33;37.33;;;;;;;;4992744;28;9034;-88
2023/02/08 00:30:55;;;;;;;;;41.33;40.67;;;;;;;;5018915;28;8844;-88
2023/02/08 00:33:23;;;;;;;;;46.00;42.33;;;;;;;;5019368;28;8870;-88
2023/02/08 00:35:52;;;;;;;;;46.00;44.00;;;;;;;;5035886;28;8885;-87
2023/02/08 00:38:21;;;;;;;;;43.00;40.33;;;;;;;;5029691;28;8890;-87
2023/02/08 00:40:50;;;;;;;;;45.00;42.00;;;;;;;;5038096;28;9620;-87
2023/02/08 00:43:18;;;;;;;;;48.67;43.00;;;;;;;;5016887;28;8834;-87
2023/02/08 00:45:45;;;;;;;;;45.67;44.00;;;;;;;;5032463;28;8837;-87
2023/02/08 00:48:13;;;;;;;;;42.00;38.33;;;;;;;;5034656;28;8842;-89
2023/02/08 00:50:41;;;;;;;;;50.33;46.00;;;;;;;;5038494;28;9034;-88
2023/02/08 00:53:08;;;;;;;;;50.00;46.00;;;;;;;;5021452;28;8867;-87
2023/02/08 00:55:36;;;;;;;;;40.67;39.00;;;;;;;;5039917;28;8859;-86
2023/02/08 00:58:07;;;;;;;;;42.00;42.00;;;;;;;;5038589;28;8861;-87
2023/02/08 01:00:34;;;;;;;;;49.25;45.75;;;;;;;;5020205;28;8811;-87
2023/02/08 01:03:04;;;;;;;;;39.00;39.00;;;;;;;;5040087;28;8872;-87
2023/02/08 01:05:34;;;;;;;;;44.33;40.67;;;;;;;;5061112;28;8929;-88
2023/02/08 01:08:01;;;;;;;;;35.33;32.33;;;;;;;;5043064;28;8886;-87
2023/02/08 01:10:29;;;;;;;;;44.25;41.00;;;;;;;;5058503;28;8850;-87
2023/02/08 01:12:57;;;;;;;;;41.25;41.00;;;;;;;;5033603;28;9064;-87
2023/02/08 01:15:26;;;;;;;;;47.25;45.00;;;;;;;;5053503;28;8902;-88
2023/02/08 01:17:54;;;;;;;;;38.00;38.00;;;;;;;;5050844;28;8890;-87
2023/02/08 01:20:23;;;;;;;;;39.67;39.67;;;;;;;;5040946;28;8958;-88
2023/02/08 01:22:51;;;;;;;;;44.50;42.25;;;;;;;;5051714;28;8862;-87
2023/02/08 01:25:19;;;;;;;;;41.33;41.00;;;;;;;;5021273;28;8830;-88
2023/02/08 01:27:46;;;;;;;;;43.33;41.67;;;;;;;;5054952;28;8856;-88
2023/02/08 01:30:16;;;;;;;;;53.00;46.33;;;;;;;;5059005;28;8849;-87
2023/02/08 01:32:45;;;;;;;;;43.67;42.00;;;;;;;;5059114;28;8832;-87
2023/02/08 01:35:14;;;;;;;;;40.00;40.00;;;;;;;;5056637;28;9664;-87
2023/02/08 01:37:42;;;;;;;;;37.33;36.67;;;;;;;;5041619;28;8961;-88
2023/02/08 01:40:11;;;;;;;;;42.00;40.50;;;;;;;;5057292;28;8872;-89
2023/02/08 01:42:38;;;;;;;;;63.25;52.50;;;;;;;;5040171;28;8851;-88
2023/02/08 01:45:28;;;;;;;;;60.75;50.75;;;;;;;;5044200;28;8859;-88
2023/02/08 01:48:04;;;;;;;;;60.00;51.50;;;;;;;;5052424;28;8860;-87
2023/02/08 01:50:36;;;;;;;;;51.50;46.25;;;;;;;;5043119;28;8844;-88
2023/02/08 01:53:05;;;;;;;;;60.75;53.25;;;;;;;;5019496;28;9004;-87
2023/02/08 01:55:39;;;;;;;;;67.25;58.00;;;;;;;;5038967;28;8844;-87
2023/02/08 01:58:10;;;;;;;;;61.75;53.75;;;;;;;;5051204;28;8849;-87
2023/02/08 02:00:38;;;;;;;;;63.00;54.25;;;;;;;;5040714;28;8827;-86
2023/02/08 02:03:07;;;;;;;;;64.50;55.00;;;;;;;;5053384;28;8833;-87
2023/02/08 02:05:38;;;;;;;;;64.00;55.00;;;;;;;;5060444;28;8847;-87
2023/02/08 02:08:07;;;;;;;;;64.50;53.75;;;;;;;;5061646;28;8954;-87
2023/02/08 02:10:36;;;;;;;;;49.75;45.75;;;;;;;;5033865;28;8892;-87
2023/02/08 02:13:12;;;;;;;;;63.00;51.75;;;;;;;;5035030;28;8880;-85
2023/02/08 02:15:40;;;;;;;;;58.25;51.50;;;;;;;;5050656;28;8909;-86
2023/02/08 02:18:09;;;;;;;;;53.75;48.50;;;;;;;;5050563;28;8872;-86
2023/02/08 02:20:52;;;;;;;;;61.25;51.25;;;;;;;;5055004;28;8995;-85
2023/02/08 02:23:47;;;;;;;;;59.25;52.25;;;;;;;;5044665;28;8932;-85
2023/02/08 02:26:52;;;;;;;;;52.75;48.25;;;;;;;;5027929;28;8871;-84
2023/02/08 02:29:40;;;;;;;;;59.50;50.50;;;;;;;;5047213;28;8852;-85
2023/02/08 02:32:30;;;;;;;;;52.50;45.00;;;;;;;;5045325;28;8819;-85
2023/02/08 02:35:03;;;;;;;;;48.75;45.50;;;;;;;;5029688;28;8830;-85
2023/02/08 02:37:41;;;;;;;;;51.75;46.75;;;;;;;;5033765;28;8846;-84
2023/02/08 02:40:16;;;;;;;;;50.00;45.75;;;;;;;;5028262;28;8903;-85
2023/02/08 02:45:48;;;;;;;;;63.00;53.00;;;;;;;;5034918;28;8825;-86
2023/02/08 02:48:22;;;;;;;;;50.50;46.00;;;;;;;;5030887;28;8877;-85
2023/02/08 02:50:54;;;;;;;;;53.00;48.50;;;;;;;;5053350;28;8849;-86
2023/02/08 02:53:29;;;;;;;;;56.25;49.50;;;;;;;;5047412;28;8840;-86
2023/02/08 02:56:02;;;;;;;;;65.25;54.50;;;;;;;;5047957;28;8884;-87
2023/02/08 02:58:34;;;;;;;;;59.00;50.25;;;;;;;;5033482;28;8911;-86
2023/02/08 03:01:02;;;;;;;;;50.75;46.75;;;;;;;;5042047;28;8796;-86
2023/02/08 03:03:33;;;;;;;;;51.75;45.25;;;;;;;;5030489;28;8866;-85
2023/02/08 03:06:04;;;;;;;;;58.50;49.00;;;;;;;;5051137;28;8871;-87
2023/02/08 03:09:00;;;;;;;;;56.00;48.00;;;;;;;;5047921;28;8923;-87
2023/02/08 03:11:30;;;;;;;;;55.50;48.75;;;;;;;;5017675;28;9623;-87
2023/02/08 03:14:12;;;;;;;;;56.25;47.00;;;;;;;;5029429;28;8855;-87
2023/02/08 03:16:54;;;;;;;;;23.00;23.00;;;;;;;;5032396;28;8878;-88
2023/02/08 03:19:30;;;;;;;;;48.25;45.25;;;;;;;;5048266;28;8919;-87
2023/02/08 03:22:03;;;;;;;;;64.25;51.00;;;;;;;;5046098;28;8872;-87
2023/02/08 03:24:37;;;;;;;;;56.50;47.75;;;;;;;;5044281;28;8878;-88
2023/02/08 03:27:09;;;;;;;;;60.00;50.00;;;;;;;;5024562;28;8878;-88
2023/02/08 03:29:44;;;;;;;;;57.00;49.50;;;;;;;;5042432;28;8879;-88
2023/02/08 03:32:17;;;;;;;;;65.25;54.00;;;;;;;;5033287;28;8813;-87
2023/02/08 03:34:51;;;;;;;;;64.00;53.75;;;;;;;;5044093;28;8850;-86
2023/02/08 03:37:21;;;;;;;;;65.50;54.75;;;;;;;;5028592;28;8886;-86
2023/02/08 03:39:52;;;;;;;;;63.25;53.50;;;;;;;;5016197;28;8880;-86
2023/02/08 03:42:26;;;;;;;;;62.50;51.50;;;;;;;;5045649;28;8841;-87
2023/02/08 03:44:57;;;;;;;;;55.75;48.25;;;;;;;;5028502;28;8851;-87
2023/02/08 03:47:27;;;;;;;;;52.25;47.25;;;;;;;;5047091;28;9006;-87
2023/02/08 03:50:00;;;;;;;;;58.50;51.25;;;;;;;;5042867;28;8847;-86
2023/02/08 03:52:31;;;;;;;;;50.50;45.75;;;;;;;;5028696;28;8848;-87
2023/02/08 03:55:01;;;;;;;;;54.75;48.00;;;;;;;;5030571;28;8891;-87
2023/02/08 03:57:31;;;;;;;;;49.50;45.00;;;;;;;;5044823;28;8883;-88
2023/02/08 04:00:05;;;;;;;;;51.75;45.75;;;;;;;;5025623;28;8943;-88
2023/02/08 04:02:38;;;;;;;;;62.00;53.00;;;;;;;;5011479;28;8809;-87
2023/02/08 04:05:09;;;;;;;;;59.25;53.00;;;;;;;;5020001;28;8857;-87
2023/02/08 04:07:38;;;;;;;;;65.50;53.75;;;;;;;;5038795;28;8892;-88
2023/02/08 04:10:06;;;;;;;;;54.50;47.50;;;;;;;;5041237;28;8982;-88
2023/02/08 04:12:35;;;;;;;;;61.50;54.00;;;;;;;;5027103;28;8866;-88
2023/02/08 04:15:05;;;;;;;;;50.25;45.75;;;;;;;;5007966;28;8871;-88
2023/02/08 04:17:34;;;;;;;;;56.75;49.75;;;;;;;;5025454;28;8839;-88
2023/02/08 04:20:03;;;;;;;;;55.50;48.25;;;;;;;;5022328;28;8832;-87
2023/02/08 04:22:33;;;;;;;;;56.25;48.00;;;;;;;;5040194;28;8852;-87
2023/02/08 04:25:00;;;;;;;;;61.50;52.25;;;;;;;;5041125;28;8859;-86
2023/02/08 04:27:28;;;;;;;;;50.00;44.50;;;;;;;;5025737;28;8925;-85
2023/02/08 04:29:55;;;;;;;;;47.00;45.00;;;;;;;;5022857;28;8868;-85
2023/02/08 04:32:23;;;;;;;;;56.00;49.50;;;;;;;;5040921;28;8843;-85
2023/02/08 04:34:50;;;;;;;;;62.25;52.75;;;;;;;;5027174;28;8840;-87
2023/02/08 04:37:18;;;;;;;;;56.25;47.00;;;;;;;;5036065;28;8864;-87
2023/02/08 04:39:47;;;;;;;;;54.50;47.50;;;;;;;;5054141;28;8850;-87
2023/02/08 04:42:15;;;;;;;;;56.25;47.50;;;;;;;;5027987;28;8858;-87
2023/02/08 04:44:43;;;;;;;;;60.50;53.00;;;;;;;;5045546;28;8842;-87
2023/02/08 04:47:10;;;;;;;;;47.75;44.75;;;;;;;;5040103;28;8843;-87
2023/02/08 04:49:38;;;;;;;;;54.50;47.50;;;;;;;;5043557;28;9006;-87
2023/02/08 04:52:06;;;;;;;;;55.75;47.75;;;;;;;;5025030;28;8845;-86
2023/02/08 04:54:35;;;;;;;;;54.50;46.25;;;;;;;;5038989;28;8887;-87
2023/02/08 04:57:07;;;;;;;;;47.00;44.00;;;;;;;;5041999;28;8854;-87
2023/02/08 04:59:34;;;;;;;;;22.25;22.25;;;;;;;;5029580;28;8871;-87
2023/02/08 05:02:04;;;;;;;;;50.50;44.75;;;;;;;;5038694;28;8796;-87
2023/02/08 05:04:32;;;;;;;;;50.75;46.50;;;;;;;;5038581;28;9003;-86
2023/02/08 05:06:59;;;;;;;;;58.00;51.00;;;;;;;;5043648;28;8901;-86
2023/02/08 05:09:29;;;;;;;;;53.25;48.25;;;;;;;;5045631;28;8864;-87
2023/02/08 05:11:56;;;;;;;;;42.75;42.00;;;;;;;;5042769;28;8889;-87
2023/02/08 05:14:28;;;;;;;;;52.75;47.25;;;;;;;;5040642;28;8861;-85
2023/02/08 05:16:56;;;;;;;;;53.00;46.00;;;;;;;;5028467;28;8868;-87
2023/02/08 05:19:24;;;;;;;;;38.50;38.00;;;;;;;;5027813;28;8875;-85
2023/02/08 05:21:52;;;;;;;;;50.00;44.75;;;;;;;;5038184;28;8903;-86
2023/02/08 05:24:19;;;;;;;;;55.50;49.25;;;;;;;;5039253;28;8868;-86
2023/02/08 05:26:47;;;;;;;;;46.00;42.50;;;;;;;;5038112;28;8890;-85
2023/02/08 05:29:15;;;;;;;;;40.75;39.75;;;;;;;;5028390;28;8850;-86
2023/02/08 05:31:46;;;;;;;;;55.50;48.00;;;;;;;;5027104;28;8812;-85
2023/02/08 05:34:19;;;;;;;;;48.50;44.75;;;;;;;;5048853;28;8863;-84
2023/02/08 05:36:46;;;;;;;;;46.00;44.00;;;;;;;;5051338;28;8986;-87
2023/02/08 05:39:14;;;;;;;;;38.25;38.25;;;;;;;;5039788;28;8856;-85
2023/02/08 05:41:42;;;;;;;;;42.00;41.50;;;;;;;;5046746;28;8852;-86
2023/02/08 05:44:12;;;;;;;;;58.50;50.00;;;;;;;;5027984;28;8987;-86
2023/02/08 05:46:40;;;;;;;;;55.00;48.50;;;;;;;;5045512;28;8863;-85
2023/02/08 05:49:08;;;;;;;;;40.75;40.75;;;;;;;;5049514;28;8864;-86
2023/02/08 05:51:36;;;;;;;;;50.50;44.50;;;;;;;;5059815;28;8857;-85
2023/02/08 05:54:07;;;;;;;;;49.75;45.00;;;;;;;;5030769;28;8864;-86
2023/02/08 05:56:35;;;;;;;;;34.00;30.25;;;;;;;;5045909;28;8856;-86
2023/02/08 05:59:06;;;;;;;;;43.75;41.75;;;;;;;;5034019;28;8862;-86
2023/02/08 06:01:35;;;;;;;;;50.00;44.00;;;;;;;;5018638;28;8791;-86
2023/02/08 06:04:05;;;;;;;;;49.00;45.50;;;;;;;;5023453;28;8864;-87
2023/02/08 06:06:37;;;;;;;;;49.00;44.00;;;;;;;;5037204;28;8871;-86
2023/02/08 06:09:04;;;;;;;;;46.25;43.50;;;;;;;;5041228;28;8966;-87
2023/02/08 06:11:35;;;;;;;;;51.00;46.50;;;;;;;;5042822;28;8860;-86
2023/02/08 06:14:06;;;;;;;;;44.50;37.00;;;;;;;;5042787;28;8910;-86
2023/02/08 06:16:34;;;;;;;;;49.00;46.75;;;;;;;;5036358;28;8855;-83
2023/02/08 06:19:02;;;;;;;;;49.00;46.00;;;;;;;;5039646;28;8867;-83
2023/02/08 06:21:29;;;;;;;;;51.00;46.75;;;;;;;;5019630;28;8924;-84
2023/02/08 06:23:58;;;;;;;;;44.00;41.50;;;;;;;;5022100;28;8871;-84
2023/02/08 06:26:26;;;;;;;;;51.25;47.50;;;;;;;;5026251;28;8887;-83
2023/02/08 06:28:54;;;;;;;;;45.50;42.25;;;;;;;;5040228;28;8977;-84
2023/02/08 06:31:22;;;;;;;;;49.50;45.50;;;;;;;;5044208;28;8801;-87
2023/02/08 06:33:49;;;;;;;;;38.25;38.25;;;;;;;;5046833;28;8864;-87
2023/02/08 06:36:17;;;;;;;;;48.00;45.00;;;;;;;;5050733;28;8908;-87
2023/02/08 06:38:45;;;;;;;;;55.25;49.00;;;;;;;;5047448;28;8908;-86
2023/02/08 06:41:14;;;;;;;;;50.00;45.00;;;;;;;;5028707;28;8856;-74
2023/02/08 06:43:41;;;;;;;;;46.25;43.25;;;;;;;;5053855;28;9701;-72
2023/02/08 06:46:08;;;;;;;;;54.50;50.00;;;;;;;;5043543;28;8856;-73
2023/02/08 06:48:36;;;;;;;;;55.75;49.00;;;;;;;;5024023;28;8872;-76
2023/02/08 06:51:04;;;;;;;;;63.75;55.25;;;;;;;;5024167;28;8862;-74
2023/02/08 06:53:32;;;;;;;;;56.00;50.25;;;;;;;;5007124;28;9011;-73
2023/02/08 06:55:59;;;;;;;;;83.50;65.75;;;;;;;;5037954;28;8883;-72
2023/02/08 06:58:28;;;;;;;;;74.25;60.50;;;;;;;;5041052;28;8884;-71
2023/02/08 07:00:55;;;;;;;;;68.50;58.00;;;;;;;;5042513;28;8823;-72
2023/02/08 07:03:22;;;;;;;;;68.50;57.75;;;;;;;;5022027;28;8846;-71
2023/02/08 07:05:50;;;;;;;;;69.50;56.25;;;;;;;;5021899;28;9893;-71
2023/02/08 07:08:17;;;;;;;;;69.00;56.00;;;;;;;;5025891;28;8885;-71
2023/02/08 07:10:45;;;;;;;;;60.25;52.00;;;;;;;;5025061;28;9676;-71
2023/02/08 07:13:12;;;;;;;;;52.50;48.00;;;;;;;;5041713;28;8838;-71
2023/02/08 07:15:41;;;;;;;;;61.75;52.75;;;;;;;;5046234;28;8849;-71
2023/02/08 07:18:08;;;;;;;;;63.50;54.25;;;;;;;;5023434;28;8862;-72
2023/02/08 07:20:36;;;;;;;;;42.00;41.50;;;;;;;;5042231;28;8846;-76
2023/02/08 07:23:04;;;;;;;;;51.50;46.50;;;;;;;;5040624;28;8851;-73
2023/02/08 07:25:32;;;;;;;;;68.00;57.25;;;;;;;;5034029;28;8864;-75
2023/02/08 07:27:59;;;;;;;;;67.25;56.25;;;;;;;;5041138;28;8836;-74
2023/02/08 07:30:26;;;;;;;;;51.00;45.75;;;;;;;;5035001;28;8797;-74
2023/02/08 07:32:55;;;;;;;;;64.50;54.00;;;;;;;;5016457;28;8872;-72
2023/02/08 07:35:23;;;;;;;;;57.25;49.75;;;;;;;;5022465;28;8905;-73
2023/02/08 07:37:50;;;;;;;;;45.75;44.25;;;;;;;;5019468;28;8854;-73
2023/02/08 07:40:18;;;;;;;;;52.25;45.00;;;;;;;;5022699;28;8863;-73
2023/02/08 07:42:45;;;;;;;;;57.25;49.75;;;;;;;;5020638;28;8852;-72
2023/02/08 07:45:13;;;;;;;;;58.00;51.50;;;;;;;;5027304;28;8845;-72
2023/02/08 07:47:40;;;;;;;;;62.25;51.75;;;;;;;;5019455;28;8871;-73
2023/02/08 07:50:09;;;;;;;;;61.50;53.50;;;;;;;;5021644;28;8884;-72
2023/02/08 07:52:37;;;;;;;;;70.00;57.50;;;;;;;;5024132;28;8868;-72
2023/02/08 07:55:04;;;;;;;;;69.25;58.00;;;;;;;;5023059;28;8861;-72
2023/02/08 07:57:32;;;;;;;;;65.50;55.75;;;;;;;;5023765;28;8877;-72
2023/02/08 07:59:59;;;;;;;;;79.00;65.00;;;;;;;;5019044;28;8987;-72
2023/02/08 08:02:27;;;;;;;;;70.00;57.25;;;;;;;;5016773;28;8819;-71
2023/02/08 08:04:54;;;;;;;;;64.25;53.50;;;;;;;;5022581;28;9023;-73
2023/02/08 08:07:23;;;;;;;;;79.00;62.50;;;;;;;;5026184;28;8850;-72
2023/02/08 08:09:50;;;;;;;;;63.00;53.50;;;;;;;;5020978;28;8899;-71
2023/02/08 08:12:17;;;;;;;;;52.50;48.00;;;;;;;;5022226;28;8851;-72
2023/02/08 08:14:44;;;;;;;;;67.50;56.00;;;;;;;;5017375;28;8922;-72
2023/02/08 08:17:11;;;;;;;;;66.50;56.25;;;;;;;;5019765;28;8876;-71
2023/02/08 08:19:39;;;;;;;;;64.00;53.75;;;;;;;;5021790;28;8857;-71
2023/02/08 08:22:06;;;;;;;;;64.00;53.25;;;;;;;;5022912;28;8860;-72
2023/02/08 08:24:35;;;;;;;;;67.50;55.75;;;;;;;;5019435;28;8849;-73
2023/02/08 08:27:02;;;;;;;;;55.75;49.00;;;;;;;;5021635;28;8857;-72
2023/02/08 08:29:32;;;;;;;;;62.25;53.00;;;;;;;;5023299;28;9659;-73
2023/02/08 08:32:00;;;;;;;;;42.00;37.33;;;;;;;;5019473;28;8942;-73
2023/02/08 08:34:29;;;;;;;;;56.00;50.50;;;;;;;;5025026;28;8924;-71
2023/02/08 08:36:56;;;;;;;;;56.75;49.00;;;;;;;;5023405;28;8837;-71
2023/02/08 08:39:24;;;;;;;;;56.75;48.50;;;;;;;;5027394;28;8834;-71
2023/02/08 08:41:52;;;;;;;;;54.67;48.67;;;;;;;;5028386;28;8846;-71
2023/02/08 08:44:21;;;;;;;;;64.00;56.00;;;;;;;;5023997;28;8856;-71
2023/02/08 08:46:49;;;;;;;;;47.67;44.00;;;;;;;;5031674;28;8872;-71
2023/02/08 08:49:16;;;;;;;;;55.33;48.67;;;;;;;;5023844;28;9643;-71
2023/02/08 08:51:43;;;;;;;;;41.33;41.33;;;;;;;;5032366;28;8963;-71
2023/02/08 08:54:10;;;;;;;;;52.33;48.33;;;;;;;;5022050;28;8814;-71
2023/02/08 08:56:38;;;;;;;;;31.33;31.00;;;;;;;;5028130;28;8993;-71
2023/02/08 08:59:06;;;;;;;;;45.67;44.33;;;;;;;;5031088;28;8863;-71
2023/02/08 09:01:33;;;;;;;;;48.00;45.67;;;;;;;;5027248;28;8826;-71
2023/02/08 09:04:01;;;;;;;;;41.33;41.33;;;;;;;;5027999;28;8868;-72
2023/02/08 09:06:28;;;;;;;;;50.00;46.33;;;;;;;;5022699;28;8848;-71
2023/02/08 09:08:55;;;;;;;;;67.67;57.67;;;;;;;;5024526;28;8830;-71
2023/02/08 09:11:23;;;;;;;;;46.33;43.33;;;;;;;;5029331;28;8855;-71
2023/02/08 09:13:51;;;;;;;;;54.00;45.33;;;;;;;;5025508;28;8997;-72
2023/02/08 09:16:20;;;;;;;;;43.67;41.00;;;;;;;;5033810;28;8838;-71
2023/02/08 09:18:47;;;;;;;;;30.33;30.33;;;;;;;;5029716;28;8845;-71
2023/02/08 09:21:17;;;;;;;;;32.33;29.33;;;;;;;;5028659;28;8827;-71
2023/02/08 09:23:46;;;;;;;;;44.33;43.33;;;;;;;;5028618;28;8861;-71
2023/02/08 09:26:15;;;;;;;;;37.67;34.67;;;;;;;;5023954;28;8895;-72
2023/02/08 09:28:42;;;;;;;;;31.67;28.00;;;;;;;;5033962;28;8864;-72
2023/02/08 09:31:10;;;;;;;;;30.33;29.00;;;;;;;;5031072;28;8777;-72
2023/02/08 09:33:39;;;;;;;;;36.67;36.00;;;;;;;;5030759;28;8843;-72
2023/02/08 09:36:07;;;;;;;;;40.33;33.67;;;;;;;;5031593;28;8861;-72
2023/02/08 09:38:35;;;;;;;;;45.33;40.00;;;;;;;;5032357;28;8854;-71
2023/02/08 09:41:09;;;;;;;;;34.33;27.33;;;;;;;;5047336;28;8949;-71
2023/02/08 09:43:44;;;;;;;;;33.67;32.33;;;;;;;;5052790;28;8956;-71
2023/02/08 09:46:16;;;;;;;;;33.00;30.00;;;;;;;;5053361;28;8871;-71
2023/02/08 09:48:46;;;;;;;;;36.00;32.00;;;;;;;;5050233;28;8883;-71
2023/02/08 09:51:22;;;;;;;;;40.33;36.67;;;;;;;;5045847;28;9043;-71
2023/02/08 09:53:53;;;;;;;;;39.00;35.67;;;;;;;;5056876;28;9766;-72
2023/02/08 09:56:26;;;;;;;;;24.00;24.00;;;;;;;;5051439;28;11613;-71
2023/02/08 09:58:54;;;;;;;;;28.00;28.00;;;;;;;;5048961;28;11577;-71
2023/02/08 10:01:24;;;;;;;;;32.67;32.00;;;;;;;;5052523;28;11656;-71
2023/02/08 10:03:55;;;;;;;;;38.33;32.67;;;;;;;;5049143;28;11616;-71
2023/02/08 10:06:23;;;;;;;;;26.25;25.50;;;;;;;;5047069;28;11717;-71
2023/02/08 10:08:51;;;;;;;;;24.50;24.50;;;;;;;;5047735;28;11581;-72
2023/02/08 10:11:32;;;;;;;;;32.25;30.00;;;;;;;;5046566;28;11574;-71
2023/02/08 10:14:12;;;;;;;;;35.25;32.25;;;;;;;;5052000;28;11734;-72
2023/02/08 10:16:55;;;;;;;;;28.25;25.75;;;;;;;;5041946;28;12403;-72
2023/02/08 10:19:34;;;;;;;;;25.75;25.25;;;;;;;;5048967;28;11565;-71
2023/02/08 10:22:15;;;;;;;;;27.50;25.00;;;;;;;;5049226;28;11595;-71
2023/02/08 10:25:01;;;;;;;;;25.50;20.00;;;;;;;;5047447;28;11614;-71
2023/02/08 10:27:39;;;;;;;;;39.50;31.75;;;;;;;;5049147;28;12603;-71
2023/02/08 10:30:21;;;;;;;;;32.50;28.75;;;;;;;;5048521;28;11733;-71
2023/02/08 10:32:55;;;;;;;;;29.75;27.75;;;;;;;;5053569;28;11589;-72
2023/02/08 10:35:28;;;;;;;;;27.50;24.75;;;;;;;;5046880;28;11608;-71
2023/02/08 10:37:56;;;;;;;;;29.50;27.75;;;;;;;;5049277;28;11745;-72
2023/02/08 10:40:30;;;;;;;;;28.50;24.50;;;;;;;;5046678;28;11600;-72
2023/02/08 10:43:05;;;;;;;;;26.50;23.50;;;;;;;;5051817;28;11571;-72
2023/02/08 10:45:40;;;;;;;;;32.00;25.50;;;;;;;;5051905;28;11590;-72
2023/02/08 10:48:13;;;;;;;;;24.50;24.50;;;;;;;;5051728;28;11589;-72
2023/02/08 10:50:46;;;;;;;;;26.75;22.00;;;;;;;;5051077;28;11563;-71
2023/02/08 10:53:15;;;;;;;;;25.75;24.50;;;;;;;;5045533;28;11716;-72
2023/02/08 10:55:44;;;;;;;;;25.25;24.00;;;;;;;;5045735;28;11626;-72
2023/02/08 10:58:17;;;;;;;;;21.25;19.25;;;;;;;;5049487;28;11706;-76
2023/02/08 11:00:45;;;;;;;;;23.00;21.50;;;;;;;;5049229;28;11506;-72
2023/02/08 11:03:18;;;;;;;;;15.75;15.75;;;;;;;;5044655;28;11605;-72
2023/02/08 11:05:47;;;;;;;;;21.00;21.00;;;;;;;;5047626;28;11697;-72
2023/02/08 11:08:18;;;;;;;;;21.75;19.25;;;;;;;;5047641;28;11579;-72
2023/02/08 11:10:55;;;;;;;;;15.50;15.50;;;;;;;;5046816;28;11570;-72
2023/02/08 11:13:23;;;;;;;;;22.50;19.50;;;;;;;;5046271;28;11588;-72
2023/02/08 11:15:52;;;;;;;;;25.25;22.25;;;;;;;;5052749;28;11662;-72
2023/02/08 11:18:23;;;;;;;;;20.75;17.50;;;;;;;;5047534;28;11691;-72
2023/02/08 11:20:55;;;;;;;;;18.00;18.00;;;;;;;;5050271;28;11577;-72
2023/02/08 11:23:25;;;;;;;;;20.25;18.00;;;;;;;;5050796;28;11688;-71
2023/02/08 11:25:53;;;;;;;;;20.00;17.75;;;;;;;;5051513;28;11588;-72
2023/02/08 11:28:26;;;;;;;;;26.50;21.50;;;;;;;;5044765;28;11528;-72
2023/02/08 11:30:58;;;;;;;;;23.50;20.75;;;;;;;;5048717;28;11476;-72
2023/02/08 11:33:26;;;;;;;;;24.00;21.25;;;;;;;;5049693;28;11528;-72
2023/02/08 11:36:01;;;;;;;;;19.75;19.00;;;;;;;;5049029;28;11529;-72
2023/02/08 11:38:29;;;;;;;;;20.75;20.75;;;;;;;;5044287;28;11507;-72
2023/02/08 11:40:58;;;;;;;;;21.75;18.00;;;;;;;;5048226;28;11564;-72
2023/02/08 11:43:28;;;;;;;;;20.00;19.00;;;;;;;;5047672;28;12296;-72
2023/02/08 11:45:57;;;;;;;;;19.75;18.50;;;;;;;;5046679;28;11507;-74
2023/02/08 11:48:28;;;;;;;;;25.50;23.25;;;;;;;;5044214;28;11550;-73
2023/02/08 11:51:00;;;;;;;;;20.00;18.00;;;;;;;;5046847;28;11530;-73
2023/02/08 11:53:31;;;;;;;;;20.50;19.00;;;;;;;;5049995;28;10968;-73
2023/02/08 11:56:20;;;;;;;;;19.75;18.25;;;;;;;;5049706;28;10972;-74
2023/02/08 11:58:59;;;;;;;;;22.75;21.25;;;;;;;;5043810;28;11158;-72
2023/02/08 12:01:29;;;;;;;;;26.25;23.00;;;;;;;;5047252;28;11093;-72
2023/02/08 12:03:59;;;;;;;;;19.75;19.50;;;;;;;;5054905;28;10971;-71
2023/02/08 12:06:55;;;;;;;;;22.00;22.00;;;;;;;;5043176;28;11636;-73
2023/02/08 12:09:33;;;;;;;;;20.25;14.75;;;;;;;;5019869;28;10946;-71
2023/02/08 12:12:09;;;;;;;;;18.00;16.25;;;;;;;;5047315;28;10681;-72
2023/02/08 12:14:51;;;;;;;;;16.50;15.75;;;;;;;;5047423;28;10666;-72
2023/02/08 12:17:39;;;;;;;;;16.75;16.75;;;;;;;;5044990;28;10594;-75
2023/02/08 12:20:30;;;;;;;;;19.25;19.25;;;;;;;;5047781;28;10513;-73
2023/02/08 12:23:26;;;;;;;;;13.25;13.25;;;;;;;;5041787;28;11808;-72
2023/02/08 12:26:00;;;;;;;;;18.50;16.50;;;;;;;;5029001;28;11415;-72
2023/02/08 12:28:40;;;;;;;;;21.00;15.75;;;;;;;;5045431;28;10597;-71
2023/02/08 12:31:12;;;;;;;;;12.00;12.00;;;;;;;;5044518;28;10581;-71
2023/02/08 12:33:45;;;;;;;;;15.00;15.00;;;;;;;;5048538;28;11326;-75
2023/02/08 12:36:20;;;;;;;;;19.50;17.50;;;;;;;;5047549;28;11207;-72
2023/02/08 12:42:18;;;;;;;;;17.75;16.25;;;;;;;;5045460;28;10404;-73
2023/02/08 12:45:00;;;;;;;;;19.25;18.00;;;;;;;;5046916;28;10520;-73
2023/02/08 12:47:38;;;;;;;;;23.50;19.25;;;;;;;;5049986;28;10382;-72
2023/02/08 12:50:15;;;;;;;;;15.25;15.25;;;;;;;;5053026;28;10422;-73
2023/02/08 12:52:45;;;;;;;;;14.00;11.00;;;;;;;;5050710;28;10098;-73
2023/02/08 12:55:20;;;;;;;;;22.00;22.00;;;;;;;;5049794;28;10006;-73
2023/02/08 12:57:51;;;;;;;;;12.75;10.75;;;;;;;;5047229;28;10176;-73
2023/02/08 13:00:21;;;;;;;;;18.00;16.75;;;;;;;;5048807;28;9870;-73
2023/02/08 13:02:56;;;;;;;;;19.75;18.75;;;;;;;;5046937;28;9907;-73
2023/02/08 13:05:27;;;;;;;;;13.00;11.75;;;;;;;;5048192;28;9937;-73
2023/02/08 13:08:01;;;;;;;;;15.75;15.75;;;;;;;;5051953;28;9782;-73
2023/02/08 13:10:34;;;;;;;;;12.00;12.00;;;;;;;;5050771;28;9896;-73
2023/02/08 13:13:07;;;;;;;;;14.25;14.25;;;;;;;;5047469;28;9824;-73
2023/02/08 13:15:40;;;;;;;;;18.00;16.00;;;;;;;;5042658;28;9818;-72
2023/02/08 13:18:14;;;;;;;;;16.00;14.75;;;;;;;;5044225;28;9795;-72
2023/02/08 13:20:44;;;;;;;;;14.25;13.50;;;;;;;;5052160;28;9808;-72
2023/02/08 13:23:19;;;;;;;;;13.25;10.75;;;;;;;;5047213;28;10592;-73
2023/02/08 13:25:49;;;;;;;;;19.25;15.50;;;;;;;;5047255;28;9797;-72
2023/02/08 13:28:19;;;;;;;;;14.25;13.00;;;;;;;;5051577;28;9958;-73
2023/02/08 13:30:54;;;;;;;;;12.75;12.75;;;;;;;;5048045;28;10768;-72
2023/02/08 13:33:29;;;;;;;;;17.25;15.75;;;;;;;;5048413;28;9896;-74
2023/02/08 13:35:58;;;;;;;;;15.75;12.25;;;;;;;;5045600;28;9869;-73
2023/02/08 13:38:28;;;;;;;;;13.75;13.75;;;;;;;;5055107;28;9866;-74
2023/02/08 13:41:06;;;;;;;;;16.00;16.00;;;;;;;;5054715;28;10058;-73
2023/02/08 13:43:37;;;;;;;;;20.00;19.00;;;;;;;;5049115;28;10102;-73
2023/02/08 13:46:05;;;;;;;;;14.25;12.75;;;;;;;;5047034;28;10137;-73
2023/02/08 13:48:46;;;;;;;;;25.50;23.25;;;;;;;;5046592;28;9789;-72
2023/02/08 13:51:56;;;;;;;;;16.00;13.75;;;;;;;;5052397;28;10115;-73
2023/02/08 13:54:23;;;;;;;;;12.00;11.00;;;;;;;;5039013;28;9716;-71
2023/02/08 13:56:52;;;;;;;;;12.25;11.00;;;;;;;;5038358;28;9656;-72
2023/02/08 13:59:33;;;;;;;;;17.50;13.25;;;;;;;;5040575;28;9750;-72
2023/02/08 14:02:22;;;;;;;;;12.50;10.75;;;;;;;;5040010;28;9583;-72
2023/02/08 14:04:50;;;;;;;;;11.25;10.25;;;;;;;;5038871;28;9707;-71
2023/02/08 14:07:40;;;;;;;;;9.00;9.00;;;;;;;;5039181;28;9870;-72
2023/02/08 14:10:25;;;;;;;;;17.50;12.50;;;;;;;;5036670;28;9793;-72
2023/02/08 14:12:59;;;;;;;;;14.25;14.25;;;;;;;;5039305;28;9856;-73
2023/02/08 14:15:37;;;;;;;;;11.50;10.25;;;;;;;;5044063;28;10062;-73
2023/02/08 14:18:06;;;;;;;;;17.25;16.50;;;;;;;;5041602;28;9813;-73
2023/02/08 14:20:38;;;;;;;;;11.50;11.50;;;;;;;;5040895;28;10048;-71
2023/02/08 14:23:08;;;;;;;;;9.25;9.25;;;;;;;;5033391;28;9744;-74
2023/02/08 14:25:42;;;;;;;;;16.00;16.00;;;;;;;;5037710;28;11757;-73
2023/02/08 14:28:25;;;;;;;;;12.25;10.50;;;;;;;;5038176;28;10182;-74
2023/02/08 14:30:54;;;;;;;;;12.00;10.75;;;;;;;;5038551;28;10034;-72
2023/02/08 14:33:24;;;;;;;;;13.75;12.50;;;;;;;;5046144;28;10107;-72
2023/02/08 14:35:54;;;;;;;;;8.50;8.50;;;;;;;;5037650;28;10247;-73
2023/02/08 14:38:47;;;;;;;;;8.25;8.25;;;;;;;;5037614;28;10360;-73
2023/02/08 14:41:43;;;;;;;;;13.75;12.75;;;;;;;;5037032;28;10337;-72
2023/02/08 14:44:47;;;;;;;;;10.50;8.00;;;;;;;;5043023;28;10201;-72
2023/02/08 14:48:00;;;;;;;;;13.00;11.00;;;;;;;;5039026;28;10248;-72
2023/02/08 14:50:30;;;;;;;;;10.50;8.75;;;;;;;;5038762;28;10455;-73
2023/02/08 14:53:02;;;;;;;;;11.00;9.25;;;;;;;;5038357;28;10417;-71
2023/02/08 14:55:32;;;;;;;;;17.25;12.25;;;;;;;;5040200;28;11217;-71
2023/02/08 14:58:01;;;;;;;;;15.25;13.75;;;;;;;;5041052;28;10569;-71